sensor_id;sensor_type;location;lat;lon;timestamp;P1;durP1;ratioP1;P2;durP2;ratioP2
10134;SDS011;5107;48.850;8.924;2024-03-08T00:01:52;29.40;;;18.40;;
10134;SDS011;5107;48.850;8.924;2024-03-08T00:04:18;30.23;;;18.50;;
10134;SDS011;5107;48.850;8.924;2024-03-08T00:06:43;28.50;;;18.30;;
10134;SDS011;5107;48.850;8.924;2024-03-08T00:09:11;32.33;;;18.23;;
10134;SDS011;5107;48.850;8.924;2024-03-08T00:11:36;30.10;;;18.67;;
10134;SDS011;5107;48.850;8.924;2024-03-08T00:14:02;31.27;;;18.93;;
10134;SDS011;5107;48.850;8.924;2024-03-08T00:16:27;28.40;;;17.87;;
10134;SDS011;5107;48.850;8.924;2024-03-08T00:18:52;30.20;;;18.53;;
10134;SDS011;5107;48.850;8.924;2024-03-08T00:21:21;29.37;;;19.40;;
10134;SDS011;5107;48.850;8.924;2024-03-08T00:23:46;28.07;;;17.67;;
10134;SDS011;5107;48.850;8.924;2024-03-08T00:26:12;30.30;;;18.07;;
10134;SDS011;5107;48.850;8.924;2024-03-08T00:28:37;30.07;;;18.53;;
10134;SDS011;5107;48.850;8.924;2024-03-08T00:31:02;32.23;;;17.97;;
10134;SDS011;5107;48.850;8.924;2024-03-08T00:33:28;32.20;;;19.23;;
10134;SDS011;5107;48.850;8.924;2024-03-08T00:35:53;30.30;;;19.10;;
10134;SDS011;5107;48.850;8.924;2024-03-08T00:38:19;33.00;;;18.57;;
10134;SDS011;5107;48.850;8.924;2024-03-08T00:40:44;32.97;;;19.00;;
10134;SDS011;5107;48.850;8.924;2024-03-08T00:43:10;32.57;;;18.63;;
10134;SDS011;5107;48.850;8.924;2024-03-08T00:45:35;31.73;;;18.73;;
10134;SDS011;5107;48.850;8.924;2024-03-08T00:48:02;30.53;;;18.40;;
10134;SDS011;5107;48.850;8.924;2024-03-08T00:50:28;29.17;;;18.07;;
10134;SDS011;5107;48.850;8.924;2024-03-08T00:52:53;29.83;;;18.63;;
10134;SDS011;5107;48.850;8.924;2024-03-08T00:55:18;31.60;;;19.00;;
10134;SDS011;5107;48.850;8.924;2024-03-08T00:57:44;31.43;;;18.97;;
10134;SDS011;5107;48.850;8.924;2024-03-08T01:00:09;30.20;;;18.40;;
10134;SDS011;5107;48.850;8.924;2024-03-08T01:02:37;30.30;;;18.80;;
10134;SDS011;5107;48.850;8.924;2024-03-08T01:05:05;32.40;;;17.87;;
10134;SDS011;5107;48.850;8.924;2024-03-08T01:07:32;31.40;;;18.87;;
10134;SDS011;5107;48.850;8.924;2024-03-08T01:09:59;30.57;;;18.57;;
10134;SDS011;5107;48.850;8.924;2024-03-08T01:12:25;33.13;;;18.80;;
10134;SDS011;5107;48.850;8.924;2024-03-08T01:14:51;29.47;;;17.87;;
10134;SDS011;5107;48.850;8.924;2024-03-08T01:17:16;29.33;;;17.97;;
10134;SDS011;5107;48.850;8.924;2024-03-08T01:19:42;31.40;;;19.57;;
10134;SDS011;5107;48.850;8.924;2024-03-08T01:22:09;33.10;;;19.87;;
10134;SDS011;5107;48.850;8.924;2024-03-08T01:24:35;31.73;;;18.97;;
10134;SDS011;5107;48.850;8.924;2024-03-08T01:27:00;32.57;;;18.90;;
10134;SDS011;5107;48.850;8.924;2024-03-08T01:29:27;31.80;;;19.27;;
10134;SDS011;5107;48.850;8.924;2024-03-08T01:31:54;30.83;;;18.53;;
10134;SDS011;5107;48.850;8.924;2024-03-08T01:34:20;31.77;;;18.63;;
10134;SDS011;5107;48.850;8.924;2024-03-08T01:36:45;32.93;;;19.03;;
10134;SDS011;5107;48.850;8.924;2024-03-08T01:39:11;30.27;;;18.33;;
10134;SDS011;5107;48.850;8.924;2024-03-08T01:41:36;32.10;;;19.20;;
10134;SDS011;5107;48.850;8.924;2024-03-08T01:44:03;31.20;;;18.83;;
10134;SDS011;5107;48.850;8.924;2024-03-08T01:46:29;32.23;;;17.97;;
10134;SDS011;5107;48.850;8.924;2024-03-08T01:48:55;31.50;;;18.80;;
10134;SDS011;5107;48.850;8.924;2024-03-08T01:51:22;31.60;;;18.70;;
10134;SDS011;5107;48.850;8.924;2024-03-08T01:53:47;35.23;;;19.03;;
10134;SDS011;5107;48.850;8.924;2024-03-08T01:56:13;32.17;;;18.83;;
10134;SDS011;5107;48.850;8.924;2024-03-08T01:58:40;32.10;;;18.10;;
10134;SDS011;5107;48.850;8.924;2024-03-08T02:01:08;31.23;;;18.83;;
10134;SDS011;5107;48.850;8.924;2024-03-08T02:03:35;29.37;;;18.17;;
10134;SDS011;5107;48.850;8.924;2024-03-08T02:06:00;31.87;;;18.33;;
10134;SDS011;5107;48.850;8.924;2024-03-08T02:08:25;29.87;;;17.60;;
10134;SDS011;5107;48.850;8.924;2024-03-08T02:10:51;32.17;;;18.33;;
10134;SDS011;5107;48.850;8.924;2024-03-08T02:13:17;29.63;;;17.77;;
10134;SDS011;5107;48.850;8.924;2024-03-08T02:18:21;30.70;;;17.63;;
10134;SDS011;5107;48.850;8.924;2024-03-08T02:20:48;33.23;;;17.57;;
10134;SDS011;5107;48.850;8.924;2024-03-08T02:23:14;34.03;;;18.63;;
10134;SDS011;5107;48.850;8.924;2024-03-08T02:25:40;32.53;;;19.03;;
10134;SDS011;5107;48.850;8.924;2024-03-08T02:28:07;28.80;;;17.87;;
10134;SDS011;5107;48.850;8.924;2024-03-08T02:30:35;31.23;;;18.93;;
10134;SDS011;5107;48.850;8.924;2024-03-08T02:33:00;32.07;;;18.73;;
10134;SDS011;5107;48.850;8.924;2024-03-08T02:35:26;29.30;;;18.17;;
10134;SDS011;5107;48.850;8.924;2024-03-08T02:37:51;30.93;;;18.03;;
10134;SDS011;5107;48.850;8.924;2024-03-08T02:40:17;28.30;;;17.07;;
10134;SDS011;5107;48.850;8.924;2024-03-08T02:42:42;28.67;;;18.23;;
10134;SDS011;5107;48.850;8.924;2024-03-08T02:45:08;31.27;;;17.67;;
10134;SDS011;5107;48.850;8.924;2024-03-08T02:47:35;30.13;;;17.20;;
10134;SDS011;5107;48.850;8.924;2024-03-08T02:50:00;29.63;;;17.43;;
10134;SDS011;5107;48.850;8.924;2024-03-08T02:52:26;30.57;;;17.73;;
10134;SDS011;5107;48.850;8.924;2024-03-08T02:54:51;30.43;;;18.53;;
10134;SDS011;5107;48.850;8.924;2024-03-08T02:57:17;29.93;;;17.83;;
10134;SDS011;5107;48.850;8.924;2024-03-08T02:59:43;30.00;;;17.00;;
10134;SDS011;5107;48.850;8.924;2024-03-08T03:02:08;29.33;;;17.33;;
10134;SDS011;5107;48.850;8.924;2024-03-08T03:04:35;28.83;;;17.57;;
10134;SDS011;5107;48.850;8.924;2024-03-08T03:07:00;28.20;;;17.80;;
10134;SDS011;5107;48.850;8.924;2024-03-08T03:09:26;29.10;;;17.13;;
10134;SDS011;5107;48.850;8.924;2024-03-08T03:11:55;32.37;;;18.60;;
10134;SDS011;5107;48.850;8.924;2024-03-08T03:14:21;30.40;;;18.57;;
10134;SDS011;5107;48.850;8.924;2024-03-08T03:16:47;29.40;;;18.60;;
10134;SDS011;5107;48.850;8.924;2024-03-08T03:19:12;28.70;;;17.33;;
10134;SDS011;5107;48.850;8.924;2024-03-08T03:21:37;30.00;;;18.10;;
10134;SDS011;5107;48.850;8.924;2024-03-08T03:24:03;27.60;;;17.27;;
10134;SDS011;5107;48.850;8.924;2024-03-08T03:26:34;30.57;;;18.00;;
10134;SDS011;5107;48.850;8.924;2024-03-08T03:29:02;31.43;;;17.33;;
10134;SDS011;5107;48.850;8.924;2024-03-08T03:31:28;31.60;;;18.43;;
10134;SDS011;5107;48.850;8.924;2024-03-08T03:33:53;27.10;;;16.43;;
10134;SDS011;5107;48.850;8.924;2024-03-08T03:36:19;31.00;;;17.77;;
10134;SDS011;5107;48.850;8.924;2024-03-08T03:38:45;28.47;;;16.60;;
10134;SDS011;5107;48.850;8.924;2024-03-08T03:41:10;28.43;;;17.57;;
10134;SDS011;5107;48.850;8.924;2024-03-08T03:43:36;28.30;;;17.07;;
10134;SDS011;5107;48.850;8.924;2024-03-08T03:46:07;29.77;;;17.37;;
10134;SDS011;5107;48.850;8.924;2024-03-08T03:48:35;30.53;;;18.10;;
10134;SDS011;5107;48.850;8.924;2024-03-08T03:51:01;29.03;;;17.13;;
10134;SDS011;5107;48.850;8.924;2024-03-08T03:53:26;26.63;;;16.93;;
10134;SDS011;5107;48.850;8.924;2024-03-08T03:55:52;31.50;;;17.77;;
10134;SDS011;5107;48.850;8.924;2024-03-08T03:58:17;26.83;;;16.67;;
10134;SDS011;5107;48.850;8.924;2024-03-08T04:00:47;29.63;;;17.50;;
10134;SDS011;5107;48.850;8.924;2024-03-08T04:03:14;26.53;;;16.20;;
10134;SDS011;5107;48.850;8.924;2024-03-08T04:05:39;28.23;;;16.67;;
10134;SDS011;5107;48.850;8.924;2024-03-08T04:08:04;29.67;;;17.23;;
10134;SDS011;5107;48.850;8.924;2024-03-08T04:10:31;29.43;;;17.17;;
10134;SDS011;5107;48.850;8.924;2024-03-08T04:12:56;25.93;;;16.13;;
10134;SDS011;5107;48.850;8.924;2024-03-08T04:15:22;28.97;;;16.50;;
10134;SDS011;5107;48.850;8.924;2024-03-08T04:17:48;28.53;;;16.97;;
10134;SDS011;5107;48.850;8.924;2024-03-08T04:20:13;28.70;;;17.47;;
10134;SDS011;5107;48.850;8.924;2024-03-08T04:22:39;29.00;;;16.43;;
10134;SDS011;5107;48.850;8.924;2024-03-08T04:25:05;29.07;;;16.43;;
10134;SDS011;5107;48.850;8.924;2024-03-08T04:27:32;28.63;;;16.30;;
10134;SDS011;5107;48.850;8.924;2024-03-08T04:29:58;25.63;;;15.27;;
10134;SDS011;5107;48.850;8.924;2024-03-08T04:32:24;26.23;;;15.80;;
10134;SDS011;5107;48.850;8.924;2024-03-08T04:34:50;29.37;;;16.40;;
10134;SDS011;5107;48.850;8.924;2024-03-08T04:37:15;27.30;;;16.23;;
10134;SDS011;5107;48.850;8.924;2024-03-08T04:39:46;28.93;;;16.77;;
10134;SDS011;5107;48.850;8.924;2024-03-08T04:42:11;29.80;;;16.70;;
10134;SDS011;5107;48.850;8.924;2024-03-08T04:44:38;25.47;;;15.63;;
10134;SDS011;5107;48.850;8.924;2024-03-08T04:47:04;29.07;;;16.70;;
10134;SDS011;5107;48.850;8.924;2024-03-08T04:49:32;29.77;;;16.00;;
10134;SDS011;5107;48.850;8.924;2024-03-08T04:52:00;28.90;;;16.80;;
10134;SDS011;5107;48.850;8.924;2024-03-08T04:54:27;27.03;;;15.97;;
10134;SDS011;5107;48.850;8.924;2024-03-08T04:56:53;26.83;;;15.73;;
10134;SDS011;5107;48.850;8.924;2024-03-08T04:59:18;24.87;;;15.73;;
10134;SDS011;5107;48.850;8.924;2024-03-08T05:01:44;27.93;;;17.17;;
10134;SDS011;5107;48.850;8.924;2024-03-08T05:04:09;31.30;;;17.20;;
10134;SDS011;5107;48.850;8.924;2024-03-08T05:06:34;30.13;;;17.47;;
10134;SDS011;5107;48.850;8.924;2024-03-08T05:09:01;28.03;;;16.23;;
10134;SDS011;5107;48.850;8.924;2024-03-08T05:11:38;29.97;;;17.03;;
10134;SDS011;5107;48.850;8.924;2024-03-08T05:14:04;26.77;;;16.50;;
10134;SDS011;5107;48.850;8.924;2024-03-08T05:16:29;30.17;;;17.03;;
10134;SDS011;5107;48.850;8.924;2024-03-08T05:18:55;26.63;;;16.73;;
10134;SDS011;5107;48.850;8.924;2024-03-08T05:21:21;29.77;;;16.37;;
10134;SDS011;5107;48.850;8.924;2024-03-08T05:23:47;26.30;;;15.53;;
10134;SDS011;5107;48.850;8.924;2024-03-08T05:26:12;30.30;;;18.00;;
10134;SDS011;5107;48.850;8.924;2024-03-08T05:28:39;27.53;;;16.90;;
10134;SDS011;5107;48.850;8.924;2024-03-08T05:31:04;28.10;;;16.50;;
10134;SDS011;5107;48.850;8.924;2024-03-08T05:33:30;28.83;;;17.60;;
10134;SDS011;5107;48.850;8.924;2024-03-08T05:35:55;28.30;;;17.13;;
10134;SDS011;5107;48.850;8.924;2024-03-08T05:38:20;27.97;;;16.63;;
10134;SDS011;5107;48.850;8.924;2024-03-08T05:40:46;26.63;;;16.53;;
10134;SDS011;5107;48.850;8.924;2024-03-08T05:43:11;29.53;;;17.33;;
10134;SDS011;5107;48.850;8.924;2024-03-08T05:45:37;30.63;;;16.63;;
10134;SDS011;5107;48.850;8.924;2024-03-08T05:48:02;32.20;;;17.70;;
10134;SDS011;5107;48.850;8.924;2024-03-08T05:50:28;29.27;;;17.27;;
10134;SDS011;5107;48.850;8.924;2024-03-08T05:52:53;31.40;;;18.80;;
10134;SDS011;5107;48.850;8.924;2024-03-08T05:55:19;34.07;;;19.77;;
10134;SDS011;5107;48.850;8.924;2024-03-08T05:57:44;29.70;;;18.13;;
10134;SDS011;5107;48.850;8.924;2024-03-08T06:00:10;28.70;;;17.53;;
10134;SDS011;5107;48.850;8.924;2024-03-08T06:02:36;30.63;;;18.70;;
10134;SDS011;5107;48.850;8.924;2024-03-08T06:05:05;32.40;;;18.37;;
10134;SDS011;5107;48.850;8.924;2024-03-08T06:07:35;44.33;;;23.53;;
10134;SDS011;5107;48.850;8.924;2024-03-08T06:10:00;45.87;;;24.47;;
10134;SDS011;5107;48.850;8.924;2024-03-08T06:12:25;49.67;;;25.90;;
10134;SDS011;5107;48.850;8.924;2024-03-08T06:14:54;42.20;;;24.20;;
10134;SDS011;5107;48.850;8.924;2024-03-08T06:17:19;37.67;;;20.37;;
10134;SDS011;5107;48.850;8.924;2024-03-08T06:19:44;30.77;;;18.80;;
10134;SDS011;5107;48.850;8.924;2024-03-08T06:22:16;30.77;;;18.53;;
10134;SDS011;5107;48.850;8.924;2024-03-08T06:24:41;28.13;;;17.93;;
10134;SDS011;5107;48.850;8.924;2024-03-08T06:27:06;27.70;;;17.10;;
10134;SDS011;5107;48.850;8.924;2024-03-08T06:29:34;27.30;;;17.10;;
10134;SDS011;5107;48.850;8.924;2024-03-08T06:32:00;26.53;;;17.23;;
10134;SDS011;5107;48.850;8.924;2024-03-08T06:34:25;24.23;;;16.20;;
10134;SDS011;5107;48.850;8.924;2024-03-08T06:36:50;26.77;;;16.70;;
10134;SDS011;5107;48.850;8.924;2024-03-08T06:39:17;25.60;;;16.77;;
10134;SDS011;5107;48.850;8.924;2024-03-08T06:41:42;25.43;;;16.27;;
10134;SDS011;5107;48.850;8.924;2024-03-08T06:44:09;27.13;;;16.50;;
10134;SDS011;5107;48.850;8.924;2024-03-08T06:46:35;25.80;;;15.83;;
10134;SDS011;5107;48.850;8.924;2024-03-08T06:49:00;23.23;;;15.43;;
10134;SDS011;5107;48.850;8.924;2024-03-08T06:51:26;23.37;;;15.70;;
10134;SDS011;5107;48.850;8.924;2024-03-08T06:53:51;23.73;;;15.97;;
10134;SDS011;5107;48.850;8.924;2024-03-08T06:56:18;23.27;;;15.57;;
10134;SDS011;5107;48.850;8.924;2024-03-08T06:58:44;25.10;;;16.07;;
10134;SDS011;5107;48.850;8.924;2024-03-08T07:01:10;24.63;;;16.23;;
10134;SDS011;5107;48.850;8.924;2024-03-08T07:03:39;25.40;;;15.97;;
10134;SDS011;5107;48.850;8.924;2024-03-08T07:06:09;21.97;;;15.33;;
10134;SDS011;5107;48.850;8.924;2024-03-08T07:08:35;24.80;;;16.00;;
10134;SDS011;5107;48.850;8.924;2024-03-08T07:11:00;24.53;;;16.00;;
10134;SDS011;5107;48.850;8.924;2024-03-08T07:13:26;25.17;;;16.00;;
10134;SDS011;5107;48.850;8.924;2024-03-08T07:15:55;28.77;;;17.43;;
10134;SDS011;5107;48.850;8.924;2024-03-08T07:18:20;25.07;;;15.67;;
10134;SDS011;5107;48.850;8.924;2024-03-08T07:20:47;25.03;;;15.73;;
10134;SDS011;5107;48.850;8.924;2024-03-08T07:23:12;26.27;;;16.17;;
10134;SDS011;5107;48.850;8.924;2024-03-08T07:25:58;23.90;;;15.00;;
10134;SDS011;5107;48.850;8.924;2024-03-08T07:28:23;25.77;;;16.43;;
10134;SDS011;5107;48.850;8.924;2024-03-08T07:30:48;25.43;;;16.37;;
10134;SDS011;5107;48.850;8.924;2024-03-08T07:33:13;26.67;;;16.90;;
10134;SDS011;5107;48.850;8.924;2024-03-08T07:35:39;27.40;;;17.53;;
10134;SDS011;5107;48.850;8.924;2024-03-08T07:38:09;28.33;;;17.63;;
10134;SDS011;5107;48.850;8.924;2024-03-08T07:40:38;27.13;;;16.77;;
10134;SDS011;5107;48.850;8.924;2024-03-08T07:43:09;25.43;;;16.70;;
10134;SDS011;5107;48.850;8.924;2024-03-08T07:45:35;24.63;;;16.63;;
10134;SDS011;5107;48.850;8.924;2024-03-08T07:48:01;28.97;;;17.87;;
10134;SDS011;5107;48.850;8.924;2024-03-08T07:50:27;27.70;;;17.43;;
10134;SDS011;5107;48.850;8.924;2024-03-08T07:52:53;28.73;;;17.87;;
10134;SDS011;5107;48.850;8.924;2024-03-08T07:55:19;32.47;;;18.43;;
10134;SDS011;5107;48.850;8.924;2024-03-08T07:57:45;33.57;;;17.93;;
10134;SDS011;5107;48.850;8.924;2024-03-08T08:00:12;29.80;;;18.53;;
10134;SDS011;5107;48.850;8.924;2024-03-08T08:02:42;29.57;;;18.27;;
10134;SDS011;5107;48.850;8.924;2024-03-08T08:05:10;27.23;;;17.30;;
10134;SDS011;5107;48.850;8.924;2024-03-08T08:07:35;28.77;;;17.43;;
10134;SDS011;5107;48.850;8.924;2024-03-08T08:10:01;27.00;;;17.20;;
10134;SDS011;5107;48.850;8.924;2024-03-08T08:12:26;27.30;;;17.70;;
10134;SDS011;5107;48.850;8.924;2024-03-08T08:14:54;26.70;;;16.97;;
10134;SDS011;5107;48.850;8.924;2024-03-08T08:17:19;25.80;;;17.23;;
10134;SDS011;5107;48.850;8.924;2024-03-08T08:19:45;27.20;;;18.03;;
10134;SDS011;5107;48.850;8.924;2024-03-08T08:22:11;28.47;;;16.83;;
10134;SDS011;5107;48.850;8.924;2024-03-08T08:24:36;27.57;;;17.93;;
10134;SDS011;5107;48.850;8.924;2024-03-08T08:27:05;26.63;;;17.00;;
10134;SDS011;5107;48.850;8.924;2024-03-08T08:29:30;25.87;;;16.87;;
10134;SDS011;5107;48.850;8.924;2024-03-08T08:31:58;25.93;;;16.83;;
10134;SDS011;5107;48.850;8.924;2024-03-08T08:34:24;27.40;;;16.77;;
10134;SDS011;5107;48.850;8.924;2024-03-08T08:36:51;29.47;;;17.93;;
10134;SDS011;5107;48.850;8.924;2024-03-08T08:39:17;24.20;;;15.73;;
10134;SDS011;5107;48.850;8.924;2024-03-08T08:41:42;22.97;;;13.87;;
10134;SDS011;5107;48.850;8.924;2024-03-08T08:44:08;30.50;;;17.53;;
10134;SDS011;5107;48.850;8.924;2024-03-08T08:46:37;24.97;;;15.60;;
10134;SDS011;5107;48.850;8.924;2024-03-08T08:49:03;25.47;;;16.17;;
10134;SDS011;5107;48.850;8.924;2024-03-08T08:51:30;26.37;;;16.57;;
10134;SDS011;5107;48.850;8.924;2024-03-08T08:53:55;27.20;;;17.33;;
10134;SDS011;5107;48.850;8.924;2024-03-08T08:56:21;28.20;;;16.73;;
10134;SDS011;5107;48.850;8.924;2024-03-08T08:58:47;24.07;;;16.03;;
10134;SDS011;5107;48.850;8.924;2024-03-08T09:01:14;24.50;;;15.70;;
10134;SDS011;5107;48.850;8.924;2024-03-08T09:03:39;24.13;;;15.63;;
10134;SDS011;5107;48.850;8.924;2024-03-08T09:06:11;24.33;;;15.87;;
10134;SDS011;5107;48.850;8.924;2024-03-08T09:08:38;24.50;;;15.50;;
10134;SDS011;5107;48.850;8.924;2024-03-08T09:11:03;26.27;;;16.73;;
10134;SDS011;5107;48.850;8.924;2024-03-08T09:13:30;23.53;;;15.67;;
10134;SDS011;5107;48.850;8.924;2024-03-08T09:15:56;22.23;;;15.47;;
10134;SDS011;5107;48.850;8.924;2024-03-08T09:19:09;23.93;;;15.43;;
10134;SDS011;5107;48.850;8.924;2024-03-08T09:24:59;25.63;;;15.37;;
10134;SDS011;5107;48.850;8.924;2024-03-08T09:27:30;24.07;;;14.73;;
10134;SDS011;5107;48.850;8.924;2024-03-08T09:29:58;22.47;;;14.80;;
10134;SDS011;5107;48.850;8.924;2024-03-08T09:32:23;21.03;;;14.27;;
10134;SDS011;5107;48.850;8.924;2024-03-08T09:37:59;24.13;;;14.40;;
10134;SDS011;5107;48.850;8.924;2024-03-08T09:52:46;18.67;;;12.73;;
10134;SDS011;5107;48.850;8.924;2024-03-08T09:55:22;24.17;;;14.47;;
10134;SDS011;5107;48.850;8.924;2024-03-08T10:04:39;22.93;;;14.43;;
10134;SDS011;5107;48.850;8.924;2024-03-08T10:07:09;22.10;;;15.07;;
10134;SDS011;5107;48.850;8.924;2024-03-08T10:09:44;21.43;;;14.00;;
10134;SDS011;5107;48.850;8.924;2024-03-08T10:12:19;23.53;;;14.07;;
10134;SDS011;5107;48.850;8.924;2024-03-08T10:14:51;20.97;;;11.43;;
10134;SDS011;5107;48.850;8.924;2024-03-08T10:17:26;20.70;;;14.20;;
10134;SDS011;5107;48.850;8.924;2024-03-08T10:20:14;20.00;;;13.20;;
10134;SDS011;5107;48.850;8.924;2024-03-08T10:22:45;20.53;;;13.73;;
10134;SDS011;5107;48.850;8.924;2024-03-08T10:28:50;21.53;;;14.33;;
10134;SDS011;5107;48.850;8.924;2024-03-08T10:37:49;21.63;;;14.17;;
10134;SDS011;5107;48.850;8.924;2024-03-08T10:44:18;23.73;;;14.53;;
10134;SDS011;5107;48.850;8.924;2024-03-08T10:49:30;20.37;;;13.73;;
10134;SDS011;5107;48.850;8.924;2024-03-08T10:52:00;22.80;;;14.97;;
10134;SDS011;5107;48.850;8.924;2024-03-08T10:55:46;21.87;;;13.90;;
10134;SDS011;5107;48.850;8.924;2024-03-08T11:04:41;23.03;;;13.70;;
10134;SDS011;5107;48.850;8.924;2024-03-08T11:08:03;24.77;;;15.00;;
10134;SDS011;5107;48.850;8.924;2024-03-08T11:14:08;25.87;;;15.70;;
10134;SDS011;5107;48.850;8.924;2024-03-08T11:21:32;22.93;;;14.63;;
10134;SDS011;5107;48.850;8.924;2024-03-08T11:27:03;20.97;;;14.10;;
10134;SDS011;5107;48.850;8.924;2024-03-08T11:39:28;19.73;;;12.40;;
10134;SDS011;5107;48.850;8.924;2024-03-08T11:45:00;23.13;;;14.60;;
10134;SDS011;5107;48.850;8.924;2024-03-08T11:47:43;23.83;;;13.30;;
10134;SDS011;5107;48.850;8.924;2024-03-08T11:51:04;20.80;;;13.97;;
10134;SDS011;5107;48.850;8.924;2024-03-08T12:01:02;19.97;;;13.27;;
10134;SDS011;5107;48.850;8.924;2024-03-08T12:09:44;20.00;;;13.23;;
10134;SDS011;5107;48.850;8.924;2024-03-08T12:12:14;18.03;;;12.40;;
10134;SDS011;5107;48.850;8.924;2024-03-08T12:14:47;19.63;;;12.90;;
10134;SDS011;5107;48.850;8.924;2024-03-08T12:17:12;20.03;;;12.43;;
10134;SDS011;5107;48.850;8.924;2024-03-08T12:19:39;18.70;;;13.37;;
10134;SDS011;5107;48.850;8.924;2024-03-08T12:22:08;20.87;;;14.00;;
10134;SDS011;5107;48.850;8.924;2024-03-08T12:25:02;21.90;;;12.57;;
10134;SDS011;5107;48.850;8.924;2024-03-08T12:30:52;19.63;;;14.23;;
10134;SDS011;5107;48.850;8.924;2024-03-08T12:37:29;18.73;;;12.97;;
10134;SDS011;5107;48.850;8.924;2024-03-08T12:40:11;18.93;;;12.47;;
10134;SDS011;5107;48.850;8.924;2024-03-08T12:42:39;17.70;;;12.50;;
10134;SDS011;5107;48.850;8.924;2024-03-08T12:45:08;19.50;;;12.53;;
10134;SDS011;5107;48.850;8.924;2024-03-08T12:47:41;19.03;;;13.33;;
10134;SDS011;5107;48.850;8.924;2024-03-08T12:50:19;17.83;;;12.97;;
10134;SDS011;5107;48.850;8.924;2024-03-08T12:52:52;17.67;;;12.90;;
10134;SDS011;5107;48.850;8.924;2024-03-08T12:55:20;18.67;;;12.80;;
10134;SDS011;5107;48.850;8.924;2024-03-08T12:57:46;18.73;;;13.00;;
10134;SDS011;5107;48.850;8.924;2024-03-08T13:00:14;19.43;;;13.43;;
10134;SDS011;5107;48.850;8.924;2024-03-08T13:02:46;20.13;;;13.20;;
10134;SDS011;5107;48.850;8.924;2024-03-08T13:05:21;18.13;;;13.40;;
10134;SDS011;5107;48.850;8.924;2024-03-08T13:07:48;19.83;;;13.73;;
10134;SDS011;5107;48.850;8.924;2024-03-08T13:10:22;22.20;;;13.43;;
10134;SDS011;5107;48.850;8.924;2024-03-08T13:12:48;19.50;;;12.97;;
10134;SDS011;5107;48.850;8.924;2024-03-08T13:15:14;19.77;;;13.87;;
10134;SDS011;5107;48.850;8.924;2024-03-08T13:17:45;19.67;;;13.13;;
10134;SDS011;5107;48.850;8.924;2024-03-08T13:20:13;20.30;;;12.93;;
10134;SDS011;5107;48.850;8.924;2024-03-08T13:22:43;18.33;;;11.90;;
10134;SDS011;5107;48.850;8.924;2024-03-08T13:25:11;17.83;;;12.63;;
10134;SDS011;5107;48.850;8.924;2024-03-08T13:27:41;21.50;;;13.00;;
10134;SDS011;5107;48.850;8.924;2024-03-08T13:30:08;19.43;;;13.13;;
10134;SDS011;5107;48.850;8.924;2024-03-08T13:32:42;20.67;;;13.53;;
10134;SDS011;5107;48.850;8.924;2024-03-08T13:35:08;18.30;;;12.47;;
10134;SDS011;5107;48.850;8.924;2024-03-08T13:37:40;20.20;;;14.07;;
10134;SDS011;5107;48.850;8.924;2024-03-08T13:40:06;19.37;;;13.40;;
10134;SDS011;5107;48.850;8.924;2024-03-08T13:42:39;19.53;;;13.90;;
10134;SDS011;5107;48.850;8.924;2024-03-08T13:45:06;21.73;;;13.77;;
10134;SDS011;5107;48.850;8.924;2024-03-08T13:47:40;21.73;;;14.17;;
10134;SDS011;5107;48.850;8.924;2024-03-08T13:50:09;20.60;;;13.77;;
10134;SDS011;5107;48.850;8.924;2024-03-08T13:53:21;20.30;;;14.07;;
10134;SDS011;5107;48.850;8.924;2024-03-08T13:55:50;19.07;;;13.90;;
10134;SDS011;5107;48.850;8.924;2024-03-08T13:58:18;22.17;;;14.40;;
10134;SDS011;5107;48.850;8.924;2024-03-08T14:00:45;20.93;;;13.50;;
10134;SDS011;5107;48.850;8.924;2024-03-08T14:03:13;19.90;;;13.73;;
10134;SDS011;5107;48.850;8.924;2024-03-08T14:05:39;18.73;;;12.53;;
10134;SDS011;5107;48.850;8.924;2024-03-08T14:08:05;21.03;;;14.30;;
10134;SDS011;5107;48.850;8.924;2024-03-08T14:10:36;20.80;;;14.07;;
10134;SDS011;5107;48.850;8.924;2024-03-08T14:13:05;19.53;;;13.80;;
10134;SDS011;5107;48.850;8.924;2024-03-08T14:15:36;22.27;;;14.07;;
10134;SDS011;5107;48.850;8.924;2024-03-08T14:18:07;20.63;;;14.23;;
10134;SDS011;5107;48.850;8.924;2024-03-08T14:20:32;21.50;;;14.33;;
10134;SDS011;5107;48.850;8.924;2024-03-08T14:23:00;19.57;;;13.20;;
10134;SDS011;5107;48.850;8.924;2024-03-08T14:25:26;20.30;;;13.57;;
10134;SDS011;5107;48.850;8.924;2024-03-08T14:27:54;21.03;;;13.80;;
10134;SDS011;5107;48.850;8.924;2024-03-08T14:30:23;22.60;;;14.07;;
10134;SDS011;5107;48.850;8.924;2024-03-08T14:33:00;20.27;;;13.97;;
10134;SDS011;5107;48.850;8.924;2024-03-08T14:35:50;21.30;;;13.00;;
10134;SDS011;5107;48.850;8.924;2024-03-08T14:38:16;18.93;;;12.87;;
10134;SDS011;5107;48.850;8.924;2024-03-08T14:40:42;21.37;;;13.80;;
10134;SDS011;5107;48.850;8.924;2024-03-08T14:43:12;21.50;;;13.07;;
10134;SDS011;5107;48.850;8.924;2024-03-08T14:45:38;21.57;;;13.67;;
10134;SDS011;5107;48.850;8.924;2024-03-08T14:48:04;18.63;;;13.40;;
10134;SDS011;5107;48.850;8.924;2024-03-08T14:50:30;19.80;;;13.33;;
10134;SDS011;5107;48.850;8.924;2024-03-08T14:52:56;19.33;;;13.23;;
10134;SDS011;5107;48.850;8.924;2024-03-08T14:55:23;19.83;;;13.50;;
10134;SDS011;5107;48.850;8.924;2024-03-08T14:57:51;21.43;;;13.90;;
10134;SDS011;5107;48.850;8.924;2024-03-08T15:00:19;19.13;;;12.63;;
10134;SDS011;5107;48.850;8.924;2024-03-08T15:02:54;20.30;;;13.60;;
10134;SDS011;5107;48.850;8.924;2024-03-08T15:05:22;19.53;;;12.80;;
10134;SDS011;5107;48.850;8.924;2024-03-08T15:07:51;19.93;;;12.90;;
10134;SDS011;5107;48.850;8.924;2024-03-08T15:10:18;18.93;;;13.07;;
10134;SDS011;5107;48.850;8.924;2024-03-08T15:12:45;18.67;;;12.70;;
10134;SDS011;5107;48.850;8.924;2024-03-08T15:15:12;21.13;;;12.90;;
10134;SDS011;5107;48.850;8.924;2024-03-08T15:17:39;19.90;;;12.47;;
10134;SDS011;5107;48.850;8.924;2024-03-08T15:20:06;18.53;;;12.47;;
10134;SDS011;5107;48.850;8.924;2024-03-08T15:22:40;20.97;;;13.60;;
10134;SDS011;5107;48.850;8.924;2024-03-08T15:25:10;24.13;;;15.03;;
10134;SDS011;5107;48.850;8.924;2024-03-08T15:27:53;20.17;;;13.80;;
10134;SDS011;5107;48.850;8.924;2024-03-08T15:30:19;21.23;;;14.57;;
10134;SDS011;5107;48.850;8.924;2024-03-08T15:32:48;17.87;;;13.07;;
10134;SDS011;5107;48.850;8.924;2024-03-08T15:35:15;19.63;;;13.43;;
10134;SDS011;5107;48.850;8.924;2024-03-08T15:37:42;20.40;;;13.67;;
10134;SDS011;5107;48.850;8.924;2024-03-08T15:40:12;18.03;;;13.23;;
10134;SDS011;5107;48.850;8.924;2024-03-08T15:42:56;21.23;;;13.80;;
10134;SDS011;5107;48.850;8.924;2024-03-08T15:45:24;20.20;;;14.07;;
10134;SDS011;5107;48.850;8.924;2024-03-08T15:47:51;21.20;;;14.13;;
10134;SDS011;5107;48.850;8.924;2024-03-08T15:50:17;22.53;;;14.30;;
10134;SDS011;5107;48.850;8.924;2024-03-08T15:52:50;21.70;;;14.67;;
10134;SDS011;5107;48.850;8.924;2024-03-08T15:55:18;19.37;;;13.83;;
10134;SDS011;5107;48.850;8.924;2024-03-08T15:57:48;22.20;;;14.17;;
10134;SDS011;5107;48.850;8.924;2024-03-08T16:00:17;22.30;;;15.00;;
10134;SDS011;5107;48.850;8.924;2024-03-08T16:03:05;22.40;;;14.70;;
10134;SDS011;5107;48.850;8.924;2024-03-08T16:05:40;20.30;;;14.57;;
10134;SDS011;5107;48.850;8.924;2024-03-08T16:08:10;20.23;;;13.53;;
10134;SDS011;5107;48.850;8.924;2024-03-08T16:10:52;21.13;;;14.10;;
10134;SDS011;5107;48.850;8.924;2024-03-08T16:13:22;21.50;;;14.67;;
10134;SDS011;5107;48.850;8.924;2024-03-08T16:15:49;21.73;;;14.03;;
10134;SDS011;5107;48.850;8.924;2024-03-08T16:18:16;18.87;;;14.07;;